Monroe Township, Ohio
Current Conditions -  °F | °C
As of 3:53 AM on Friday 31 Oct 2014 (Local Time) from KHZY Reporting Station
Overcast Overcast  
Wind Chill: 37°   Ceiling: 10000
Heat Index: 40°   Visibility: 10mi
Dew Point: 37°   Wind: 5mph
Humidity: 89%   Direction: 180°S
Pressure: 29.98"   Gusts: NA
Location:  41.8949°N, 80.5816°W
Report Text: KHZY 310753Z AUTO 18004KT 10SM OVC100 04/03 A2998 RMK AO2 SLP157 T00440028
Loading
Personal Weather Stations






























Interactive Weather Map
Tropical Storm Tracking
New forecast layout! Learn more

10-Day Weather Forecast

Advertisements
Track Severe Weather on mobile